-->

Nearby METAR Reports

 

EBAW - Antwerpen, Belgium
Distance from station: NW 22km
Updated: 2021-08-03 13:20
Few Clouds
Few Clouds
 Wind from varies
Wind: varies 4 km/h
Temperature: 19°C
Dew Point: 8°C
Humidity: 49%
Barometer: 1013 hPa
Clouds: Few Clouds
Visibility: 10 km
Cloud details: Few Clouds 1036 m
2021/08/03 11:20 EBAW 031120Z VRB02KT 9999 FEW034 19/08 Q1013 NOSIG
EBBR - Brussel, Belgium
Distance from station: SW 24km
Updated: 2021-08-03 13:20
Few Clouds
Few Clouds
 Wind from N
Wind: N 6 km/h
Temperature: 18°C
Dew Point: 10°C
Humidity: 60%
Barometer: 1013 hPa
Clouds: Few Clouds
Visibility: 10 km
Cloud details: Few Clouds 975 m
2021/08/03 11:20 EBBR 031120Z 35003KT 290V090 9999 FEW032 18/10 Q1013 NOSIG
 
EBDT - Schaffen, Belgium
Distance from station: ESE 26km
Updated: 2021-08-03 13:03
Overcast
Overcast
 Wind from N
Wind: N 9 km/h
Temperature: 16°C
Dew Point: 14°C
Humidity: 88%
Barometer: 1013 hPa
Clouds: Overcast
Visibility: 10 km
Cloud details: Few Clouds 274 m
Mostly cloudy 640 m
Overcast 2164 m
2021/08/03 11:03 EBDT 031103Z AUTO 35005KT 9999 FEW009/// BKN021/// OVC071/// 16/14 Q1013 WHT
EBBE - Beauvechain, Belgium
Distance from station: S 36km
Updated: 2021-08-03 13:25
Mostly cloudy
Mostly cloudy
 Wind from N
Wind: N 7 km/h
Temperature: 17°C
Dew Point: 11°C
Humidity: 68%
Barometer: 1013 hPa
Clouds: Mostly cloudy
Visibility: 10 km
Cloud details: Few Clouds 549 m
Mostly cloudy 2134 m
2021/08/03 11:25 EBBE 031125Z 35004KT 9999 FEW018 BKN070 17/11 Q1013 BLU BLU TEMPO WHT
 
EHWO - Woensdrecht Rnla, Netherlands
Distance from station: NNW 50km
Updated: 2021-08-03 13:25
Mostly cloudy
Mostly cloudy
 Wind from NNW
Wind: NNW 7 km/h
Temperature: 19°C
Dew Point: 11°C
Humidity: 60%
Barometer: 1013 hPa
Clouds: Mostly cloudy
Visibility: 10 km
Cloud details: Few Clouds 1128 m
Partly cloudy 1311 m
Mostly cloudy 1433 m
2021/08/03 11:25 EHWO 031125Z AUTO 34004KT 250V050 9999 FEW037 SCT043 BKN047 19/11 Q1013 BLU NOSIG
EBBL - Kleine-Brogel, Belgium
Distance from station: ENE 54km
Updated: 2021-08-03 13:25
Mostly cloudy
Mostly cloudy
 Wind from NNE
Wind: NNE 9 km/h
Temperature: 17°C
Dew Point: 14°C
Humidity: 83%
Barometer: 1013 hPa
Clouds: Mostly cloudy
Visibility: 8 km
Cloud details: Few Clouds 305 m
Partly cloudy 1158 m
Mostly cloudy 1372 m
2021/08/03 11:25 EBBL 031125Z 03005KT 8000 FEW010 SCT038 BKN045 17/14 Q1013 BLU BLU TEMPO WHT
 
EHGR - Gilze-Rijen Rnla, Netherlands
Distance from station: NNE 57km
Updated: 2021-08-03 13:25
Overcast
Overcast
 Wind from NE
Wind: NE 7 km/h
Temperature: 20°C
Dew Point: 11°C
Humidity: 56%
Barometer: 1013 hPa
Clouds: Overcast
Visibility: 10 km
Cloud details: Mostly cloudy 975 m
Overcast 1829 m
2021/08/03 11:25 EHGR 031125Z AUTO 05004KT 020V110 9999 BKN032 OVC060 20/11 Q1013 BLU NOSIG
EHEH - Eindhoven Rnlafb, Netherlands
Distance from station: NE 63km
Updated: 2021-08-03 13:25
Overcast
Overcast
 Wind from varies
Wind: varies 4 km/h
Temperature: 18°C
Dew Point: 13°C
Humidity: 73%
Barometer: 1013 hPa
Clouds: Overcast
Visibility: 10 km
Cloud details: Overcast 2134 m
2021/08/03 11:25 EHEH 031125Z AUTO VRB02KT 9999 OVC070 18/13 Q1013 BLU NOSIG
 
EBCI - Charleroi, Belgium
Distance from station: SSW 70km
Updated: 2021-08-03 13:20
Partly cloudy
Partly cloudy
 Wind from NW
Wind: NW 11 km/h
Temperature: 16°C
Dew Point: 13°C
Humidity: 83%
Barometer: 1013 hPa
Clouds: Partly cloudy
Visibility: 10 km
Cloud details: Few Clouds 610 m
Partly cloudy 1067 m
2021/08/03 11:20 EBCI 031120Z 32006KT 290V360 9999 FEW020 SCT035 16/13 Q1013 NOSIG
EBLG - Bierset, Belgium
Distance from station: SE 72km
Updated: 2021-08-03 13:20
Partly cloudy
Partly cloudy
 Wind from N
Wind: N 13 km/h
Temperature: 17°C
Dew Point: 13°C
Humidity: 77%
Barometer: 1013 hPa
Clouds: Partly cloudy
Visibility: 10 km
Cloud details: Few Clouds 366 m
Partly cloudy 732 m
2021/08/03 11:20 EBLG 031120Z 01007KT 330V050 9999 FEW012 SCT024 17/13 Q1013 NOSIG
Benelux Weer Netwerk cwop awekas hwa wcloud pwsweather wow wow